createdAt,value
2018-12-17T01:41:53.719Z,1006.57
2018-12-17T01:42:52.062Z,1006.57
2018-12-17T01:43:53.709Z,1006.57
2018-12-17T01:45:51.955Z,1006.57
2018-12-17T01:46:51.912Z,1006.56
2018-12-17T01:47:53.706Z,1006.57
2018-12-17T01:48:53.700Z,1006.55
2018-12-17T01:49:51.964Z,1006.55
2018-12-17T01:50:51.799Z,1006.57
2018-12-17T01:51:51.754Z,1006.57
2018-12-17T01:52:52.699Z,1006.58
2018-12-17T01:53:53.208Z,1006.54
2018-12-17T01:54:53.205Z,1006.53
2018-12-17T01:55:51.688Z,1006.53
2018-12-17T02:15:13.491Z,1006.53
2018-12-17T03:44:31.648Z,1006.82
2018-12-17T03:46:31.538Z,1006.86
2018-12-17T03:47:31.519Z,1006.91
2018-12-17T03:48:31.478Z,1006.85
2018-12-17T03:49:31.441Z,1006.84
2018-12-17T03:50:32.536Z,1006.80
2018-12-17T03:51:31.375Z,1006.85
2018-12-17T03:52:32.430Z,1006.87
2018-12-17T03:53:31.321Z,1006.86
2018-12-17T03:54:31.319Z,1006.90
2018-12-17T03:55:31.240Z,1006.88
2018-12-17T03:56:31.328Z,1006.85
2018-12-17T03:57:31.193Z,1006.84
2018-12-17T03:58:32.266Z,1006.86
2018-12-17T03:59:31.108Z,1006.81
2018-12-17T04:00:31.084Z,1006.80
2018-12-17T04:01:31.067Z,1006.89
2018-12-17T04:02:31.024Z,1006.85
2018-12-17T04:03:32.106Z,1006.86
2018-12-17T04:04:30.950Z,1006.89
2018-12-17T04:05:30.980Z,1006.84
2018-12-17T04:06:30.883Z,1006.88
2018-12-17T04:07:30.901Z,1006.89
2018-12-17T04:08:30.817Z,1006.86
2018-12-17T04:09:31.826Z,1006.90
2018-12-17T04:10:30.745Z,1006.85
2018-12-17T04:11:30.856Z,1006.89
2018-12-17T04:12:30.678Z,1006.86
2018-12-17T04:13:30.751Z,1006.87
2018-12-17T04:14:30.625Z,1006.86
2018-12-17T04:15:30.652Z,1006.85
2018-12-17T04:16:30.558Z,1006.86
2018-12-17T04:17:32.606Z,1006.78
2018-12-17T04:18:30.495Z,1006.89
2018-12-17T04:19:30.576Z,1006.86
2018-12-17T04:20:30.432Z,1006.88
2018-12-17T04:21:31.509Z,1006.88
2018-12-17T04:22:30.376Z,1006.87
2018-12-17T04:23:30.407Z,1006.82
2018-12-17T04:24:30.318Z,1006.78
2018-12-17T04:25:38.089Z,1006.89
2018-12-17T04:26:30.222Z,1006.85
2018-12-17T04:27:30.346Z,1006.88
2018-12-17T04:28:30.153Z,1006.85
2018-12-17T04:29:30.125Z,1006.89
2018-12-17T04:30:31.159Z,1006.87
2018-12-17T04:31:30.077Z,1006.85
2018-12-17T04:32:30.166Z,1006.86
2018-12-17T04:33:30.015Z,1006.91
2018-12-17T04:34:30.073Z,1006.93
2018-12-17T04:35:29.932Z,1006.95
2018-12-17T04:36:32.026Z,1007.01
2018-12-17T04:37:29.875Z,1006.99
2018-12-17T04:38:29.992Z,1006.96
2018-12-17T04:39:29.795Z,1006.95
2018-12-17T04:40:29.923Z,1006.94
2018-12-17T04:41:29.720Z,1006.96
2018-12-17T04:42:31.858Z,1006.99
2018-12-17T04:43:29.680Z,1006.96
2018-12-17T04:44:29.666Z,1006.97
2018-12-17T04:45:29.623Z,1006.99
2018-12-17T04:46:29.590Z,1006.99
2018-12-17T04:47:29.638Z,1007.00
2018-12-17T04:48:29.519Z,1007.02
2018-12-17T04:49:29.564Z,1007.04
2018-12-17T04:50:29.448Z,1007.04
2018-12-17T04:51:29.582Z,1007.09
2018-12-17T04:52:29.375Z,1007.07
2018-12-17T04:53:30.520Z,1007.07
2018-12-17T04:54:29.323Z,1007.11
2018-12-17T04:55:29.407Z,1007.08
2018-12-17T04:56:29.250Z,1007.12
2018-12-17T04:57:29.321Z,1007.08
2018-12-17T04:58:29.194Z,1007.17
2018-12-17T04:59:29.168Z,1007.14
2018-12-17T05:00:29.125Z,1007.13
2018-12-17T05:01:29.094Z,1007.16
2018-12-17T05:02:29.145Z,1007.14
2018-12-17T05:03:29.026Z,1007.12
2018-12-17T05:04:35.604Z,1007.09
2018-12-17T05:05:28.962Z,1007.08
2018-12-17T05:06:29.069Z,1007.15
2018-12-17T05:07:28.879Z,1007.21
2018-12-17T05:08:31.011Z,1007.23
2018-12-17T05:09:28.837Z,1007.21
2018-12-17T05:10:29.911Z,1007.20
2018-12-17T05:11:28.789Z,1007.21
2018-12-17T05:12:28.801Z,1007.21
2018-12-17T05:13:28.691Z,1007.19
2018-12-17T05:14:28.809Z,1007.19
2018-12-17T05:15:28.619Z,1007.24
2018-12-17T05:16:28.736Z,1007.23
2018-12-17T05:17:28.564Z,1007.21
2018-12-17T05:18:28.635Z,1007.20
2018-12-17T05:19:28.519Z,1007.24
2018-12-17T05:20:29.571Z,1007.23
2018-12-17T05:21:28.431Z,1007.21
2018-12-17T05:22:29.480Z,1007.20
2018-12-17T05:23:28.368Z,1007.21
2018-12-17T05:24:29.516Z,1007.22
2018-12-17T05:25:28.295Z,1007.30
2018-12-17T05:26:28.398Z,1007.28
2018-12-17T05:27:28.261Z,1007.27
2018-12-17T05:28:28.287Z,1007.31
2018-12-17T05:29:28.169Z,1007.30
2018-12-17T05:30:28.288Z,1007.30
2018-12-17T05:31:28.097Z,1007.24
2018-12-17T05:32:28.217Z,1007.27
2018-12-17T05:33:28.049Z,1007.26
2018-12-17T05:34:28.155Z,1007.32
2018-12-17T05:35:27.961Z,1007.26
2018-12-17T05:36:27.986Z,1007.32
2018-12-17T05:37:27.949Z,1007.31
2018-12-17T05:38:28.968Z,1007.37
2018-12-17T05:39:27.838Z,1007.37
2018-12-17T05:40:28.964Z,1007.37
2018-12-17T05:41:27.812Z,1007.36
2018-12-17T05:42:27.916Z,1007.39
2018-12-17T05:43:27.710Z,1007.37
2018-12-17T05:44:27.745Z,1007.36
2018-12-17T05:45:27.631Z,1007.39
2018-12-17T05:46:27.695Z,1007.37
2018-12-17T05:47:27.584Z,1007.40
2018-12-17T05:48:27.746Z,1007.34
2018-12-17T05:49:27.514Z,1007.40
2018-12-17T05:50:35.156Z,1007.42
2018-12-17T05:51:27.495Z,1007.39
2018-12-17T05:52:44.200Z,1007.41
2018-12-17T05:53:27.382Z,1007.37
2018-12-17T05:54:29.463Z,1007.39
2018-12-17T05:55:27.343Z,1007.40
2018-12-17T05:56:28.545Z,1007.39
2018-12-17T05:57:27.377Z,1007.45
2018-12-17T05:58:27.645Z,1007.46
2018-12-17T05:59:28.712Z,1007.46
2018-12-17T06:00:27.486Z,1007.47
2018-12-17T06:01:27.252Z,1007.43
2018-12-17T06:02:36.127Z,1007.45
2018-12-17T06:03:27.064Z,1007.44
2018-12-17T06:04:33.587Z,1007.45
2018-12-17T06:05:26.989Z,1007.49
2018-12-17T06:06:27.042Z,1007.50
2018-12-17T06:07:26.912Z,1007.49
2018-12-17T06:08:26.980Z,1007.49
2018-12-17T06:09:26.851Z,1007.52
2018-12-17T06:10:27.884Z,1007.57
2018-12-17T06:11:27.544Z,1007.58
2018-12-17T06:12:26.786Z,1007.58
2018-12-17T06:13:26.721Z,1007.59
2018-12-17T06:14:33.664Z,1007.60
2018-12-17T06:15:26.657Z,1007.62
2018-12-17T06:16:26.717Z,1007.65
2018-12-17T06:17:26.600Z,1007.66
2018-12-17T06:18:26.622Z,1007.67
2018-12-17T06:19:26.529Z,1007.67
2018-12-17T06:20:26.531Z,1007.65
2018-12-17T06:21:26.445Z,1007.71
2018-12-17T06:22:28.498Z,1007.72
2018-12-17T06:23:26.401Z,1007.70
2018-12-17T06:24:26.443Z,1007.68
2018-12-17T06:25:26.327Z,1007.67
2018-12-17T06:26:33.367Z,1007.68
2018-12-17T06:27:26.332Z,1007.67
2018-12-17T06:28:33.360Z,1007.75
2018-12-17T06:29:26.197Z,1007.73
2018-12-17T06:30:26.292Z,1007.73
2018-12-17T06:31:26.142Z,1007.72
2018-12-17T06:32:26.190Z,1007.77
2018-12-17T06:33:26.064Z,1007.78
2018-12-17T06:34:26.106Z,1007.82
2018-12-17T06:35:26.003Z,1007.80
2018-12-17T06:36:27.035Z,1007.82
2018-12-17T06:37:25.932Z,1007.82
2018-12-17T06:38:26.931Z,1007.84
2018-12-17T06:39:25.867Z,1007.83
2018-12-17T06:40:25.923Z,1007.82
2018-12-17T06:41:25.795Z,1007.85
2018-12-17T06:42:25.921Z,1007.83
2018-12-17T06:43:25.755Z,1007.85
2018-12-17T06:44:25.746Z,1007.82
2018-12-17T06:45:25.678Z,1007.81
2018-12-17T06:46:27.740Z,1007.86
2018-12-17T06:47:25.587Z,1007.82
2018-12-17T06:48:26.605Z,1007.87
2018-12-17T06:49:25.540Z,1007.84
2018-12-17T06:50:25.605Z,1007.81
2018-12-17T06:51:25.472Z,1007.88
2018-12-17T06:52:26.527Z,1007.86
2018-12-17T06:53:25.436Z,1007.84
2018-12-17T06:54:40.153Z,1007.81
2018-12-17T06:55:25.344Z,1007.84
2018-12-17T06:56:32.078Z,1007.86
2018-12-17T06:57:25.289Z,1007.88
2018-12-17T06:58:25.333Z,1007.84
2018-12-17T06:59:25.201Z,1007.89
2018-12-17T07:01:25.167Z,1007.90
2018-12-17T07:03:26.049Z,1007.95
2018-12-17T07:04:49.648Z,1007.98
2018-12-17T07:05:25.016Z,1007.97
2018-12-17T07:06:40.635Z,1007.95
2018-12-17T07:07:24.975Z,1008.01
2018-12-17T07:08:47.023Z,1008.00
2018-12-17T07:09:24.884Z,1008.03
2018-12-17T07:10:24.869Z,1008.01
2018-12-17T07:11:45.836Z,1008.00
2018-12-17T07:12:24.782Z,1008.01
2018-12-17T07:13:33.739Z,1008.01
2018-12-17T07:14:24.936Z,1008.00
2018-12-17T07:15:41.764Z,1008.02
2018-12-17T07:16:24.788Z,1008.02
2018-12-17T07:17:46.295Z,1008.07
2018-12-17T07:18:24.619Z,1008.02
2018-12-17T07:19:32.111Z,1008.04
2018-12-17T07:20:24.515Z,1008.04
2018-12-17T07:34:03.550Z,1008.27
2018-12-17T07:34:51.757Z,1008.29
2018-12-17T07:36:15.528Z,1008.33
2018-12-17T07:36:51.659Z,1008.32
2018-12-17T07:37:51.674Z,1008.33
2018-12-17T07:38:51.698Z,1008.36
2018-12-17T07:39:53.625Z,1008.28
2018-12-17T07:40:51.510Z,1008.36
2018-12-17T07:42:08.513Z,1008.34
2018-12-17T07:42:51.470Z,1008.36
2018-12-17T07:43:52.557Z,1008.39
2018-12-17T07:44:51.405Z,1008.37
2018-12-17T07:45:51.438Z,1008.34
2018-12-17T07:46:51.332Z,1008.36
2018-12-17T07:47:51.352Z,1008.31
2018-12-17T07:48:51.268Z,1008.36
2018-12-17T07:49:52.292Z,1008.34
2018-12-17T07:50:51.218Z,1008.36
2018-12-17T07:51:51.337Z,1008.32
2018-12-17T07:52:51.145Z,1008.39
2018-12-17T07:53:53.113Z,1008.42
2018-12-17T07:54:51.093Z,1008.39
2018-12-17T07:55:51.075Z,1008.44
2018-12-17T07:56:51.026Z,1008.42
2018-12-17T07:57:51.003Z,1008.45
2018-12-17T07:58:50.950Z,1008.42
2018-12-17T07:59:56.638Z,1008.48
2018-12-17T08:00:50.884Z,1008.48
2018-12-17T08:01:50.954Z,1008.48
2018-12-17T08:02:50.840Z,1008.46
2018-12-17T08:03:50.830Z,1008.54
2018-12-17T08:04:50.743Z,1008.56
2018-12-17T08:05:51.819Z,1008.54
2018-12-17T08:06:50.678Z,1008.52
2018-12-17T08:07:50.657Z,1008.55
2018-12-17T08:08:50.619Z,1008.54
2018-12-17T08:10:11.593Z,1008.55
2018-12-17T08:10:50.559Z,1008.58
2018-12-17T08:11:51.710Z,1008.59
2018-12-17T08:12:50.473Z,1008.61
2018-12-17T08:13:50.460Z,1008.59
2018-12-17T08:14:52.533Z,1008.59
2018-12-17T08:15:50.381Z,1008.58
2018-12-17T08:16:50.405Z,1008.58
2018-12-17T08:17:50.318Z,1008.65
2018-12-17T08:18:50.322Z,1008.68
2018-12-17T08:19:50.317Z,1008.66
2018-12-17T08:20:50.205Z,1008.64
2018-12-17T08:21:51.272Z,1008.66
2018-12-17T08:22:50.173Z,1008.65
2018-12-17T08:23:50.126Z,1008.64
2018-12-17T08:24:50.968Z,1008.67
2018-12-17T08:25:50.165Z,1008.68
2018-12-17T08:26:50.050Z,1008.71
2018-12-17T08:27:50.086Z,1008.67
2018-12-17T08:28:49.961Z,1008.70
2018-12-17T08:29:50.050Z,1008.68
2018-12-17T08:30:49.961Z,1008.68
2018-12-17T08:31:50.949Z,1008.71
2018-12-17T08:32:49.859Z,1008.70
2018-12-17T08:33:49.955Z,1008.73
2018-12-17T08:34:49.827Z,1008.70
2018-12-17T08:35:49.864Z,1008.71
2018-12-17T08:36:49.722Z,1008.75
2018-12-17T08:37:49.773Z,1008.76
2018-12-17T08:38:49.670Z,1008.76
2018-12-17T08:39:49.617Z,1008.76
2018-12-17T08:40:49.638Z,1008.76
2018-12-17T08:41:49.729Z,1008.77
2018-12-17T08:42:49.532Z,1008.79
2018-12-17T08:43:49.577Z,1008.77
2018-12-17T08:44:49.443Z,1008.78
2018-12-17T08:45:49.409Z,1008.77
2018-12-17T08:46:49.370Z,1008.83
2018-12-17T08:47:49.467Z,1008.82
2018-12-17T08:48:49.317Z,1008.81
2018-12-17T08:49:49.284Z,1008.78
2018-12-17T08:50:49.240Z,1008.82
2018-12-17T08:51:49.297Z,1008.84
2018-12-17T08:52:49.191Z,1008.82
2018-12-17T08:53:50.234Z,1008.87
2018-12-17T08:54:49.105Z,1008.86
2018-12-17T08:55:49.111Z,1008.91
2018-12-17T08:56:49.031Z,1008.88
2018-12-17T08:57:49.025Z,1008.89
2018-12-17T08:58:49.002Z,1008.87
2018-12-17T08:59:49.039Z,1008.90
2018-12-17T09:00:48.929Z,1008.84
2018-12-17T09:01:48.948Z,1008.83
2018-12-17T09:02:48.851Z,1008.87
2018-12-17T09:03:49.877Z,1008.84
2018-12-17T09:04:48.810Z,1008.82
2018-12-17T09:05:48.811Z,1008.86
2018-12-17T09:06:48.723Z,1008.85
2018-12-17T09:07:48.789Z,1008.86
2018-12-17T09:08:48.663Z,1008.88
2018-12-17T09:09:48.709Z,1008.89
2018-12-17T09:10:48.591Z,1008.87
2018-12-17T09:11:48.602Z,1008.91
2018-12-17T09:12:48.525Z,1008.91
2018-12-17T09:13:49.565Z,1008.90
2018-12-17T09:14:48.480Z,1008.93
2018-12-17T09:15:48.519Z,1008.93
2018-12-17T09:16:48.469Z,1008.94
2018-12-17T09:17:48.459Z,1008.98
2018-12-17T09:18:48.398Z,1008.96
2018-12-17T09:19:48.358Z,1008.95
2018-12-17T09:20:48.312Z,1008.99
2018-12-17T09:21:48.276Z,1009.04
2018-12-17T09:22:48.193Z,1009.05
2018-12-17T09:23:48.275Z,1009.07
2018-12-17T09:24:48.140Z,1009.10
2018-12-17T09:25:48.202Z,1009.11
2018-12-17T09:26:48.083Z,1009.13
2018-12-17T09:27:48.081Z,1009.14
2018-12-17T09:28:48.012Z,1009.17
2018-12-17T09:29:48.026Z,1009.13
2018-12-17T09:30:47.931Z,1009.15
2018-12-17T09:31:47.923Z,1009.17
2018-12-17T09:32:47.903Z,1009.12
2018-12-17T09:33:48.863Z,1009.13
2018-12-17T09:34:47.797Z,1009.10
2018-12-17T09:35:47.846Z,1009.17
2018-12-17T09:36:47.754Z,1009.16
2018-12-17T09:37:49.821Z,1009.19
2018-12-17T09:38:47.716Z,1009.18
2018-12-17T09:40:08.655Z,1009.15
2018-12-17T09:40:47.653Z,1009.22
2018-12-17T09:41:48.591Z,1009.21
2018-12-17T09:42:47.565Z,1009.21
2018-12-17T09:44:04.602Z,1009.22
2018-12-17T09:44:47.498Z,1009.26
2018-12-17T09:45:48.538Z,1009.24
2018-12-17T09:58:56.508Z,1009.40
2018-12-17T09:59:54.654Z,1009.40
2018-12-17T10:01:11.454Z,1009.37
2018-12-17T10:01:54.642Z,1009.37
2018-12-17T10:03:02.434Z,1009.40
2018-12-17T10:03:54.526Z,1009.39
2018-12-17T10:04:56.605Z,1009.36
2018-12-17T10:05:54.471Z,1009.36
2018-12-17T10:07:15.440Z,1009.40
2018-12-17T10:07:54.599Z,1009.38
2018-12-17T10:09:23.873Z,1009.37
2018-12-17T10:09:54.303Z,1009.38
2018-12-17T10:11:54.249Z,1009.39
2018-12-17T10:13:16.258Z,1009.38
2018-12-17T10:13:54.191Z,1009.36
2018-12-17T10:14:55.279Z,1009.38
2018-12-17T10:15:54.147Z,1009.34
2018-12-17T10:16:55.212Z,1009.37
2018-12-17T10:17:54.067Z,1009.30
2018-12-17T10:18:55.099Z,1009.37
2018-12-17T10:19:57.883Z,1009.31
2018-12-17T10:20:55.873Z,1009.33
2018-12-17T10:22:53.906Z,1009.31
2018-12-17T10:23:53.884Z,1009.30
2018-12-17T10:24:55.383Z,1009.37
2018-12-17T10:25:53.821Z,1009.30
2018-12-17T10:26:53.870Z,1009.31
2018-12-17T10:27:53.747Z,1009.30
2018-12-17T10:29:14.696Z,1009.27
2018-12-17T10:29:55.376Z,1009.29
2018-12-17T10:31:00.400Z,1009.28
2018-12-17T10:31:53.638Z,1009.29
2018-12-17T10:39:17.112Z,1009.31
2018-12-17T10:40:31.986Z,1009.30
2018-12-17T10:41:17.036Z,1009.25
2018-12-17T10:42:31.910Z,1009.31
2018-12-17T10:43:16.970Z,1009.29
2018-12-17T10:44:52.898Z,1009.27
2018-12-17T10:45:16.862Z,1009.34
2018-12-17T10:46:32.836Z,1009.31
2018-12-17T10:47:16.836Z,1009.33
2018-12-17T10:48:17.822Z,1009.33
2018-12-17T10:49:16.761Z,1009.31
2018-12-17T10:50:16.717Z,1009.32
2018-12-17T10:51:16.784Z,1009.31
2018-12-17T10:52:16.649Z,1009.35
2018-12-17T10:53:16.704Z,1009.32
2018-12-17T10:54:16.601Z,1009.30
2018-12-17T10:55:23.363Z,1009.28
2018-12-17T10:56:16.535Z,1009.30
2018-12-17T10:57:16.526Z,1009.33
2018-12-17T10:58:16.456Z,1009.38
2018-12-17T10:59:16.434Z,1009.38
2018-12-17T11:00:16.423Z,1009.35
2018-12-17T11:01:32.519Z,1009.36
2018-12-17T11:02:16.325Z,1009.35
2018-12-17T11:22:19.419Z,1009.36
2018-12-17T11:23:19.460Z,1009.36
2018-12-17T11:24:19.335Z,1009.34
2018-12-17T11:25:19.365Z,1009.40
2018-12-17T11:26:19.274Z,1009.37
2018-12-17T11:27:19.264Z,1009.36
2018-12-17T11:28:19.190Z,1009.35
2018-12-17T11:29:19.278Z,1009.33
2018-12-17T11:30:19.205Z,1009.39
2018-12-17T11:31:19.213Z,1009.38
2018-12-17T11:32:19.074Z,1009.33
2018-12-17T11:33:19.102Z,1009.32
2018-12-17T11:34:19.386Z,1009.31
2018-12-17T11:35:19.019Z,1009.28
2018-12-17T11:36:18.953Z,1009.27
2018-12-17T11:37:19.037Z,1009.30
2018-12-17T11:38:18.887Z,1009.34
2018-12-17T11:39:19.960Z,1009.31
2018-12-17T11:40:18.839Z,1009.29
2018-12-17T11:41:18.845Z,1009.36
2018-12-17T11:42:18.773Z,1009.33
2018-12-17T11:43:18.770Z,1009.31
2018-12-17T11:44:18.716Z,1009.35
2018-12-17T11:45:18.672Z,1009.33
2018-12-17T11:46:18.642Z,1009.36
2018-12-17T11:47:18.800Z,1009.38
2018-12-17T11:48:18.565Z,1009.40
2018-12-17T11:49:18.619Z,1009.39
2018-12-17T11:50:18.539Z,1009.40
2018-12-17T11:51:54.143Z,1009.42
2018-12-17T11:52:18.423Z,1009.43
2018-12-17T11:53:27.234Z,1009.39
2018-12-17T11:54:18.368Z,1009.41
2018-12-17T11:55:42.412Z,1009.42
2018-12-17T11:56:18.312Z,1009.39
2018-12-17T11:57:35.145Z,1009.37
2018-12-17T11:58:18.251Z,1009.39
2018-12-17T11:59:26.124Z,1009.43
2018-12-17T12:00:18.263Z,1009.37
2018-12-17T12:14:37.791Z,1009.50
2018-12-17T12:22:21.004Z,1009.56
2018-12-17T12:23:20.905Z,1009.54
2018-12-17T12:24:20.863Z,1009.55
2018-12-17T12:25:20.815Z,1009.57
2018-12-17T12:26:20.873Z,1009.55
2018-12-17T12:27:20.835Z,1009.63
2018-12-17T12:28:20.803Z,1009.62
2018-12-17T12:29:20.705Z,1009.61
2018-12-17T12:30:42.710Z,1009.62
2018-12-17T12:31:20.622Z,1009.69
2018-12-17T12:41:09.558Z,1009.67
2018-12-17T12:42:17.470Z,1009.68
2018-12-17T12:43:09.501Z,1009.69
2018-12-17T13:07:08.603Z,1009.97
2018-12-17T13:08:08.272Z,1009.98
2018-12-17T13:47:17.442Z,1010.52
2018-12-17T13:48:16.234Z,1010.54
2018-12-17T13:49:17.382Z,1010.54
2018-12-17T13:50:16.142Z,1010.58
2018-12-17T13:51:16.304Z,1010.58
2018-12-17T13:52:15.994Z,1010.55
2018-12-17T13:53:23.622Z,1010.58
2018-12-17T13:54:15.968Z,1010.60
2018-12-17T13:55:23.614Z,1010.61
2018-12-17T13:56:15.900Z,1010.62
2018-12-17T13:57:30.613Z,1010.64
2018-12-17T13:58:15.816Z,1010.65
2018-12-17T14:11:27.932Z,1010.86
2018-12-17T14:13:03.788Z,1010.92
2018-12-17T14:13:27.803Z,1010.93
2018-12-17T14:14:27.838Z,1010.94
2018-12-17T14:15:36.951Z,1010.91
2018-12-17T14:16:27.727Z,1010.92
2018-12-17T14:17:27.752Z,1010.97
2018-12-17T14:18:27.704Z,1010.97
2018-12-17T14:19:53.334Z,1010.99
2018-12-17T14:20:27.599Z,1010.99
2018-12-17T14:23:58.634Z,1010.98
2018-12-17T14:24:37.628Z,1011.02
2018-12-17T14:53:26.314Z,1011.45
2018-12-17T14:54:04.576Z,1011.53
2018-12-17T14:55:04.794Z,1011.55
2018-12-17T14:56:04.559Z,1011.57
2018-12-17T14:57:04.649Z,1011.55
2018-12-17T14:58:04.487Z,1011.58
2018-12-17T14:59:06.650Z,1011.60
2018-12-17T15:00:04.420Z,1011.60
2018-12-17T15:01:04.519Z,1011.62
2018-12-17T15:02:04.324Z,1011.67
2018-12-17T15:03:04.486Z,1011.69
2018-12-17T15:04:04.280Z,1011.68
2018-12-17T15:05:06.403Z,1011.69
2018-12-17T15:06:04.199Z,1011.75
2018-12-17T15:07:04.219Z,1011.77
2018-12-17T15:08:04.139Z,1011.81
2018-12-17T15:09:04.246Z,1011.80
2018-12-17T15:10:04.083Z,1011.81
2018-12-17T15:11:06.183Z,1011.83
2018-12-17T15:12:04.009Z,1011.85
2018-12-17T15:13:19.978Z,1011.86
2018-12-17T15:14:03.933Z,1011.86
2018-12-17T15:15:05.126Z,1011.85
2018-12-17T15:16:03.873Z,1011.87
2018-12-17T15:17:03.966Z,1011.88
2018-12-17T15:18:03.824Z,1011.93
2018-12-17T15:19:04.929Z,1011.93
2018-12-17T15:20:03.758Z,1011.94
2018-12-17T15:21:04.951Z,1011.98
2018-12-17T15:22:03.709Z,1011.95
2018-12-17T15:23:03.715Z,1012.01
2018-12-17T15:24:03.642Z,1012.01
2018-12-17T15:25:05.822Z,1012.00
2018-12-17T15:26:03.545Z,1012.07
2018-12-17T15:27:03.668Z,1012.06
2018-12-17T15:28:03.536Z,1012.10
2018-12-17T15:29:03.677Z,1012.11
2018-12-17T15:30:03.480Z,1012.10
2018-12-17T15:31:11.348Z,1012.09
2018-12-17T15:32:03.380Z,1012.12
2018-12-17T15:33:03.402Z,1012.13
2018-12-17T15:34:03.300Z,1012.15
2018-12-17T15:35:04.354Z,1012.21
2018-12-17T15:36:03.272Z,1012.22
2018-12-17T15:37:03.207Z,1012.23
2018-12-17T15:38:03.156Z,1012.26
2018-12-17T15:39:03.190Z,1012.29
2018-12-17T15:40:04.254Z,1012.30
2018-12-17T15:41:03.093Z,1012.29
2018-12-17T15:42:09.890Z,1012.28
2018-12-17T15:43:02.996Z,1012.30
2018-12-17T15:44:03.052Z,1012.33
2018-12-17T15:45:02.942Z,1012.31
2018-12-17T15:46:02.972Z,1012.34
2018-12-17T15:47:02.910Z,1012.33
2018-12-17T15:48:02.877Z,1012.36
2018-12-17T15:49:02.844Z,1012.41
2018-12-17T15:50:02.783Z,1012.42
2018-12-17T15:51:02.770Z,1012.43
2018-12-17T15:52:03.841Z,1012.47
2018-12-17T15:53:02.710Z,1012.46
2018-12-17T15:54:02.812Z,1012.59
2018-12-17T15:55:02.661Z,1012.57
2018-12-17T15:56:02.599Z,1012.56
2018-12-17T15:57:02.560Z,1012.58
2018-12-17T15:58:02.551Z,1012.59
2018-12-17T15:59:02.495Z,1012.55
2018-12-17T16:00:02.458Z,1012.58
2018-12-17T16:01:02.458Z,1012.56
2018-12-17T16:02:02.396Z,1012.55
2018-12-17T16:03:02.365Z,1012.68
2018-12-17T16:04:02.326Z,1012.67
2018-12-17T16:05:02.313Z,1012.69
2018-12-17T16:06:02.276Z,1012.67
2018-12-17T16:07:02.252Z,1012.67
2018-12-17T16:08:02.228Z,1012.65
2018-12-17T16:09:02.173Z,1012.70
2018-12-17T16:10:02.135Z,1012.69
2018-12-17T16:11:02.117Z,1012.71
2018-12-17T16:12:02.078Z,1012.76
2018-12-17T16:13:02.058Z,1012.78
2018-12-17T16:14:02.014Z,1012.85
2018-12-17T16:15:02.113Z,1012.87
2018-12-17T16:16:01.986Z,1012.87
2018-12-17T16:17:02.025Z,1012.89
2018-12-17T16:18:01.907Z,1012.89
2018-12-17T16:19:01.845Z,1012.94
2018-12-17T16:20:02.991Z,1012.91
2018-12-17T16:21:01.822Z,1012.93
2018-12-17T16:22:01.880Z,1012.95
2018-12-17T16:23:01.742Z,1012.93
2018-12-17T16:24:01.700Z,1012.90
2018-12-17T16:25:01.720Z,1012.94
2018-12-17T16:26:02.712Z,1012.98
2018-12-17T16:27:01.606Z,1012.93
2018-12-17T16:28:01.562Z,1012.97
2018-12-17T16:29:01.533Z,1012.99
2018-12-17T16:30:01.578Z,1013.03
2018-12-17T16:31:01.491Z,1013.06
2018-12-17T16:32:01.486Z,1013.07
2018-12-17T16:33:01.432Z,1013.10
2018-12-17T16:34:02.407Z,1013.12
2018-12-17T16:35:01.376Z,1013.13
2018-12-17T16:36:02.454Z,1013.10
2018-12-17T16:37:01.283Z,1013.13
2018-12-17T16:38:01.324Z,1013.11
2018-12-17T16:39:01.226Z,1013.13
2018-12-17T16:40:02.280Z,1013.16
2018-12-17T16:41:01.162Z,1013.21
2018-12-17T16:42:01.149Z,1013.23
2018-12-17T16:43:01.092Z,1013.22
2018-12-17T16:44:01.143Z,1013.18
2018-12-17T16:45:01.011Z,1013.23
2018-12-17T16:46:03.737Z,1013.24
2018-12-17T16:47:00.972Z,1013.25
2018-12-17T16:48:00.966Z,1013.28
2018-12-17T16:49:00.997Z,1013.27
2018-12-17T16:50:02.953Z,1013.28
2018-12-17T16:51:00.882Z,1013.32
2018-12-17T16:52:02.064Z,1013.37
2018-12-17T16:53:00.781Z,1013.38
2018-12-17T16:54:00.806Z,1013.35
2018-12-17T16:55:00.735Z,1013.38
2018-12-17T16:56:00.767Z,1013.36
2018-12-17T16:57:00.660Z,1013.35
2018-12-17T16:58:08.407Z,1013.40
2018-12-17T16:59:00.617Z,1013.33
2018-12-17T17:00:02.601Z,1013.41
2018-12-17T17:01:00.528Z,1013.38
2018-12-17T17:02:07.427Z,1013.39
2018-12-17T17:03:00.458Z,1013.45
2018-12-17T17:04:07.312Z,1013.44
2018-12-17T17:05:00.406Z,1013.45
2018-12-17T17:06:00.487Z,1013.40
2018-12-17T17:07:00.331Z,1013.43
2018-12-17T17:08:01.423Z,1013.43
2018-12-17T17:09:00.277Z,1013.47
2018-12-17T17:10:00.324Z,1013.44
2018-12-17T17:11:00.230Z,1013.47
2018-12-17T17:12:00.196Z,1013.47
2018-12-17T17:13:00.192Z,1013.50
2018-12-17T17:14:02.179Z,1013.53
2018-12-17T17:15:00.076Z,1013.56
2018-12-17T17:16:00.124Z,1013.48
2018-12-17T17:17:00.021Z,1013.57
2018-12-17T17:18:00.060Z,1013.56
2018-12-17T17:18:59.935Z,1013.50
2018-12-17T17:19:59.954Z,1013.53
2018-12-17T17:20:59.893Z,1013.51
2018-12-17T17:21:59.964Z,1013.55
2018-12-17T17:22:59.818Z,1013.55
2018-12-17T17:24:01.871Z,1013.56
2018-12-17T17:24:59.760Z,1013.63
2018-12-17T17:26:07.412Z,1013.64
2018-12-17T17:26:59.724Z,1013.61
2018-12-17T17:33:32.038Z,1013.68
2018-12-17T17:34:30.348Z,1013.66
2018-12-17T17:36:06.085Z,1013.66
2018-12-17T17:36:30.192Z,1013.68
2018-12-17T17:37:30.224Z,1013.76
2018-12-17T17:39:30.100Z,1013.69
2018-12-17T17:40:47.062Z,1013.72
2018-12-17T17:41:30.051Z,1013.75
2018-12-17T17:42:38.592Z,1013.77
2018-12-17T17:43:30.006Z,1013.76
2018-12-17T17:44:29.994Z,1013.82
2018-12-17T17:45:29.912Z,1013.80
2018-12-17T17:46:31.994Z,1013.80
2018-12-17T17:47:29.869Z,1013.80
2018-12-17T17:48:29.931Z,1013.78
2018-12-17T17:49:29.802Z,1013.79
2018-12-17T17:50:29.829Z,1013.82
2018-12-17T17:51:29.745Z,1013.84
2018-12-17T17:52:29.750Z,1013.79
2018-12-17T17:53:29.703Z,1013.81
2018-12-17T17:54:30.687Z,1013.83
2018-12-17T17:55:29.622Z,1013.86
2018-12-17T17:56:29.667Z,1013.86
2018-12-17T17:57:29.564Z,1013.89
2018-12-17T17:58:29.579Z,1013.90
2018-12-17T17:59:29.490Z,1013.90
2018-12-17T18:00:31.543Z,1013.96
2018-12-17T18:01:29.418Z,1013.94
2018-12-17T18:02:29.393Z,1013.96
2018-12-17T18:03:29.384Z,1014.05
2018-12-17T18:04:29.418Z,1014.04
2018-12-17T18:05:29.288Z,1013.98
2018-12-17T18:06:30.347Z,1014.03
2018-12-17T18:07:29.231Z,1014.01
2018-12-17T18:08:29.260Z,1014.06
2018-12-17T18:09:29.169Z,1014.08
2018-12-17T18:10:29.270Z,1014.08
2018-12-17T18:11:29.146Z,1014.12
2018-12-17T18:12:29.188Z,1014.11
2018-12-17T18:13:29.084Z,1014.15
2018-12-17T18:14:31.146Z,1014.18
2018-12-17T18:15:28.989Z,1014.18
2018-12-17T18:16:29.060Z,1014.24
2018-12-17T18:17:28.921Z,1014.26
2018-12-17T18:18:29.007Z,1014.30
2018-12-17T18:19:28.860Z,1014.28
2018-12-17T18:20:28.920Z,1014.28
2018-12-17T18:21:28.792Z,1014.30
2018-12-17T18:22:29.535Z,1014.33
2018-12-17T18:23:28.752Z,1014.40
2018-12-17T18:24:35.928Z,1014.36
2018-12-17T18:25:28.723Z,1014.41
2018-12-17T18:26:29.658Z,1014.36
2018-12-17T18:27:28.596Z,1014.42
2018-12-17T18:28:30.582Z,1014.40
2018-12-17T18:29:28.543Z,1014.39
2018-12-17T18:30:29.583Z,1014.43
2018-12-17T18:31:28.519Z,1014.49
2018-12-17T18:32:29.094Z,1014.46
2018-12-17T18:33:28.443Z,1014.53
2018-12-17T18:34:28.508Z,1014.53
2018-12-17T18:35:28.345Z,1014.54
2018-12-17T18:36:36.045Z,1014.59
2018-12-17T18:37:28.305Z,1014.57
2018-12-17T18:38:28.321Z,1014.53
2018-12-17T18:39:28.225Z,1014.55
2018-12-17T18:40:29.240Z,1014.60
2018-12-17T18:41:28.186Z,1014.57
2018-12-17T18:42:29.191Z,1014.60
2018-12-17T18:43:28.116Z,1014.62
2018-12-17T18:44:28.165Z,1014.63
2018-12-17T18:45:28.022Z,1014.66
2018-12-17T18:46:29.070Z,1014.67
2018-12-17T18:47:28.003Z,1014.70